Time;durP1;ratioP1;P1;durP2;ratioP2;P2;SDS_P1;SDS_P2;PMS_P1;PMS_P2;Temp;Humidity;BMP_temperature;BMP_pressure;BME280_temperature;BME280_humidity;BME280_pressure;Samples;Min_cycle;Max_cycle;Signal;HPM_P1;HPM_P2
2022/03/14 00:02:08;;;;;;;3.83;1.88;;;;;;;10.90;66.03;101603.06;5051245;28;20021;-79
2022/03/14 00:04:34;;;;;;;3.67;2.00;;;;;;;10.89;65.97;101603.91;5044046;28;20192;-79
2022/03/14 00:07:00;;;;;;;3.70;1.85;;;;;;;10.89;66.36;101611.75;5048846;28;20356;-79
2022/03/14 00:09:27;;;;;;;3.63;1.95;;;;;;;10.85;66.63;101615.06;5045302;28;20022;-79
2022/03/14 00:11:56;;;;;;;4.13;2.35;;;;;;;10.81;66.74;101615.78;5039441;28;20059;-79
2022/03/14 00:14:22;;;;;;;3.63;1.90;;;;;;;10.76;67.09;101617.34;5042096;28;20020;-79
2022/03/14 00:16:47;;;;;;;4.07;2.25;;;;;;;10.76;67.37;101622.56;5049101;28;20174;-79
2022/03/14 00:19:13;;;;;;;3.80;2.08;;;;;;;10.77;67.18;101629.56;5046793;28;20335;-79
2022/03/14 00:21:39;;;;;;;4.25;2.22;;;;;;;10.76;66.88;101631.28;5051580;28;20022;-79
2022/03/14 00:24:08;;;;;;;3.88;1.92;;;;;;;10.78;67.15;101620.91;5049520;28;20318;-79
2022/03/14 00:26:34;;;;;;;4.38;2.20;;;;;;;10.79;67.13;101625.28;5048703;28;20032;-79
2022/03/14 00:29:00;;;;;;;3.90;2.22;;;;;;;10.78;67.12;101632.22;5045438;28;20053;-79
2022/03/14 00:31:25;;;;;;;3.97;2.17;;;;;;;10.76;67.41;101636.50;5045306;28;20013;-79
2022/03/14 00:33:51;;;;;;;3.75;2.10;;;;;;;10.75;67.33;101639.06;5047102;28;20021;-79
2022/03/14 00:36:17;;;;;;;4.40;2.30;;;;;;;10.74;67.40;101643.34;5048446;28;20025;-79
2022/03/14 00:38:42;;;;;;;3.60;1.98;;;;;;;10.74;67.26;101645.09;5047355;28;20292;-79
2022/03/14 00:41:08;;;;;;;4.03;2.30;;;;;;;10.72;67.41;101651.97;5043878;28;20031;-79
2022/03/14 00:43:34;;;;;;;3.50;2.05;;;;;;;10.71;67.41;101660.63;5048150;28;20061;-79
2022/03/14 00:46:00;;;;;;;4.38;2.40;;;;;;;10.70;67.54;101662.34;5047170;28;20064;-78
2022/03/14 00:48:26;;;;;;;5.15;2.25;;;;;;;10.71;67.30;101660.63;5050657;28;20008;-79
2022/03/14 00:50:52;;;;;;;3.83;2.13;;;;;;;10.70;67.81;101661.44;5044543;28;20221;-79
2022/03/14 00:53:18;;;;;;;3.92;2.40;;;;;;;10.69;67.91;101672.69;5048312;28;20025;-79
2022/03/14 00:55:43;;;;;;;3.97;2.35;;;;;;;10.71;67.79;101665.84;5045585;28;20025;-78
2022/03/14 00:58:09;;;;;;;4.68;2.40;;;;;;;10.70;67.89;101675.38;5047198;28;20029;-79
2022/03/14 01:00:35;;;;;;;4.63;2.45;;;;;;;10.71;68.28;101678.88;5043081;28;20216;-79
2022/03/14 01:03:00;;;;;;;4.72;2.38;;;;;;;10.69;68.31;101678.81;5036035;28;20268;-79
2022/03/14 01:05:27;;;;;;;4.60;2.60;;;;;;;10.68;69.57;101681.38;5044642;28;20017;-78
2022/03/14 01:07:52;;;;;;;4.35;2.45;;;;;;;10.63;69.76;101685.50;5047921;28;20037;-77
2022/03/14 01:10:18;;;;;;;4.75;2.85;;;;;;;10.60;69.92;101699.31;5044251;28;20080;-77
2022/03/14 01:12:43;;;;;;;6.18;3.05;;;;;;;10.57;70.03;101697.50;5042510;28;20021;-77
2022/03/14 01:15:09;;;;;;;5.25;2.65;;;;;;;10.53;70.24;101692.09;5043085;28;20073;-77
2022/03/14 01:17:35;;;;;;;4.53;2.53;;;;;;;10.52;69.96;101695.53;5044744;28;20132;-77
2022/03/14 01:20:01;;;;;;;4.78;2.80;;;;;;;10.50;70.37;101687.66;5051400;28;20024;-77
2022/03/14 01:22:27;;;;;;;4.80;2.78;;;;;;;10.48;70.37;101697.13;5056963;28;20021;-77
2022/03/14 01:24:52;;;;;;;4.75;2.65;;;;;;;10.44;70.54;101697.84;5050699;28;20018;-77
2022/03/14 01:27:17;;;;;;;4.63;2.90;;;;;;;10.39;70.78;101700.28;5045916;28;20319;-77
2022/03/14 01:29:43;;;;;;;4.97;2.90;;;;;;;10.35;70.96;101710.53;5044683;28;20105;-77
2022/03/14 01:32:10;;;;;;;5.28;2.72;;;;;;;10.33;71.16;101707.84;5045270;28;20260;-77
2022/03/14 01:34:35;;;;;;;5.13;3.00;;;;;;;10.29;71.35;101710.28;5043095;28;20025;-77
2022/03/14 01:37:01;;;;;;;5.03;2.80;;;;;;;10.27;70.95;101715.41;5044707;28;20318;-78
2022/03/14 01:39:26;;;;;;;4.97;2.70;;;;;;;10.26;71.51;101718.84;5045826;28;20084;-78
2022/03/14 01:41:52;;;;;;;5.30;2.95;;;;;;;10.25;71.86;101717.97;5040691;28;20018;-79
2022/03/14 01:44:17;;;;;;;4.93;3.00;;;;;;;10.23;71.68;101713.53;5043506;28;20236;-79
2022/03/14 01:46:45;;;;;;;5.63;3.10;;;;;;;10.20;71.79;101713.41;5047387;28;20028;-78
2022/03/14 01:49:11;;;;;;;5.50;2.90;;;;;;;10.21;71.66;101710.84;5049878;28;20017;-79
2022/03/14 01:51:40;;;;;;;5.70;3.25;;;;;;;10.19;71.88;101717.69;5047218;28;20041;-78
2022/03/14 01:54:06;;;;;;;5.07;2.97;;;;;;;10.18;71.84;101715.94;5047899;28;20080;-79
2022/03/14 01:56:31;;;;;;;5.03;2.92;;;;;;;10.21;71.81;101726.47;5047762;28;20027;-79
2022/03/14 01:58:57;;;;;;;5.40;3.10;;;;;;;10.22;71.75;101728.25;5046022;28;20017;-78
2022/03/14 02:01:22;;;;;;;4.85;3.13;;;;;;;10.20;71.93;101729.03;5040329;28;20025;-79
2022/03/14 02:03:50;;;;;;;6.40;3.28;;;;;;;10.19;71.83;101732.44;5047496;28;20048;-78
2022/03/14 02:06:17;;;;;;;5.20;3.10;;;;;;;10.19;71.73;101730.72;5044985;28;20248;-79
2022/03/14 02:08:43;;;;;;;4.97;3.35;;;;;;;10.24;71.80;101737.03;5049285;28;20151;-79
2022/03/14 02:11:08;;;;;;;5.60;3.28;;;;;;;10.24;71.77;101737.03;5045684;28;20041;-78
2022/03/14 02:13:34;;;;;;;5.60;3.33;;;;;;;10.24;72.09;101746.56;5041609;28;20029;-78
2022/03/14 02:15:59;;;;;;;5.88;3.42;;;;;;;10.23;71.90;101748.25;5042176;28;20063;-78
2022/03/14 02:18:24;;;;;;;5.57;3.28;;;;;;;10.21;72.08;101752.53;5042004;28;20272;-78
2022/03/14 02:20:50;;;;;;;5.57;3.38;;;;;;;10.20;72.35;101753.34;5042150;28;20079;-79
2022/03/14 02:23:15;;;;;;;5.28;3.45;;;;;;;10.21;72.50;101755.13;5043353;28;20230;-78
2022/03/14 02:25:52;;;;;;;5.57;3.50;;;;;;;10.21;72.45;101760.34;5043338;28;20059;-78
2022/03/14 02:28:21;;;;;;;5.82;3.70;;;;;;;10.22;72.65;101756.88;5042189;28;20028;-78
2022/03/14 02:30:47;;;;;;;5.93;3.78;;;;;;;10.25;72.56;101758.72;5039068;28;20018;-78
2022/03/14 02:33:12;;;;;;;6.07;3.88;;;;;;;10.24;72.81;101760.47;5051604;28;20013;-78
2022/03/14 02:35:40;;;;;;;5.90;3.80;;;;;;;10.24;72.50;101755.25;5045999;28;20009;-78
2022/03/14 02:38:09;;;;;;;7.00;4.10;;;;;;;10.23;72.59;101761.28;5048259;28;20025;-78
2022/03/14 02:40:36;;;;;;;6.63;4.00;;;;;;;10.24;72.49;101770.00;5044109;28;20039;-78
2022/03/14 02:43:01;;;;;;;7.20;4.20;;;;;;;10.21;72.05;101755.13;5043289;28;20017;-78
2022/03/14 02:45:27;;;;;;;6.80;4.35;;;;;;;10.22;72.57;101764.69;5041752;28;20044;-78
2022/03/14 02:47:52;;;;;;;8.85;4.10;;;;;;;10.19;72.73;101768.91;5043168;28;20025;-79
2022/03/14 02:50:18;;;;;;;6.20;3.78;;;;;;;10.16;72.72;101764.47;5042456;28;20222;-78
2022/03/14 02:52:43;;;;;;;6.95;4.28;;;;;;;10.17;72.71;101771.47;5049882;28;20017;-78
2022/03/14 02:55:08;;;;;;;5.95;3.75;;;;;;;10.13;73.02;101779.09;5040452;28;20149;-78
2022/03/14 02:57:34;;;;;;;4.97;3.40;;;;;;;10.09;73.39;101778.97;5041795;28;20060;-79
2022/03/14 02:59:59;;;;;;;5.93;3.88;;;;;;;10.08;73.27;101786.72;5041547;28;20025;-78
2022/03/14 03:02:25;;;;;;;7.30;4.20;;;;;;;10.06;73.17;101796.16;5038839;28;20112;-78
2022/03/14 03:04:51;;;;;;;5.53;3.63;;;;;;;10.06;73.41;101803.97;5044745;28;20282;-78
2022/03/14 03:07:19;;;;;;;6.40;3.88;;;;;;;10.07;73.23;101800.56;5044756;28;20029;-78
2022/03/14 03:09:45;;;;;;;6.93;4.07;;;;;;;10.07;73.43;101808.38;5040604;28;20017;-78
2022/03/14 03:12:15;;;;;;;5.68;3.70;;;;;;;10.06;73.34;101811.78;5049516;28;20053;-78
2022/03/14 03:14:41;;;;;;;6.18;3.90;;;;;;;10.05;73.33;101817.81;5043260;28;20071;-78
2022/03/14 03:17:06;;;;;;;6.35;3.95;;;;;;;10.05;73.05;101823.03;5044801;28;20029;-78
2022/03/14 03:19:32;;;;;;;6.68;3.80;;;;;;;10.04;73.19;101826.47;5049461;28;20024;-78
2022/03/14 03:21:58;;;;;;;5.22;3.65;;;;;;;10.01;73.26;101832.44;5044855;28;20192;-78
2022/03/14 03:24:24;;;;;;;6.43;4.07;;;;;;;10.00;73.17;101835.88;5041367;28;20009;-78
2022/03/14 03:26:49;;;;;;;7.05;4.18;;;;;;;9.99;73.29;101841.00;5046757;28;20093;-78
2022/03/14 03:29:14;;;;;;;6.68;3.90;;;;;;;9.98;73.55;101855.75;5046782;28;20009;-78
2022/03/14 03:31:39;;;;;;;6.40;3.85;;;;;;;9.94;74.24;101863.38;5046682;28;20029;-79
2022/03/14 03:34:06;;;;;;;7.03;4.10;;;;;;;9.89;74.58;101873.56;5046328;28;20009;-78
2022/03/14 03:36:31;;;;;;;6.57;4.13;;;;;;;9.88;74.72;101877.88;5046052;28;20021;-78
2022/03/14 03:38:58;;;;;;;6.50;4.32;;;;;;;9.84;75.23;101881.19;5045952;28;20017;-79
2022/03/14 03:41:23;;;;;;;6.18;4.00;;;;;;;9.84;75.28;101877.69;5044845;28;20025;-78
2022/03/14 03:43:48;;;;;;;6.80;4.28;;;;;;;9.82;75.19;101884.53;5045837;28;20214;-79
2022/03/14 03:46:14;;;;;;;6.90;4.30;;;;;;;9.81;75.44;101886.25;5044425;28;20053;-78
2022/03/14 03:48:39;;;;;;;6.55;4.43;;;;;;;9.79;75.21;101898.34;5044626;28;20278;-79
2022/03/14 03:51:05;;;;;;;6.88;4.47;;;;;;;9.76;75.07;101898.16;5049197;28;20044;-78
2022/03/14 03:53:30;;;;;;;9.13;4.63;;;;;;;9.72;75.24;101902.38;5045177;28;20321;-78
2022/03/14 03:55:55;;;;;;;7.00;4.53;;;;;;;9.69;75.69;101911.72;5046010;28;20116;-79
2022/03/14 03:58:21;;;;;;;7.30;4.72;;;;;;;9.62;75.91;101920.13;5051944;28;20175;-77
2022/03/14 04:00:46;;;;;;;8.20;5.03;;;;;;;9.57;76.17;101918.19;5046610;28;20020;-78
2022/03/14 04:03:11;;;;;;;8.40;5.05;;;;;;;9.54;76.06;101920.66;5046494;28;20149;-78
2022/03/14 04:05:39;;;;;;;6.75;4.65;;;;;;;9.53;76.33;101929.28;5044958;28;20017;-79
2022/03/14 04:08:08;;;;;;;9.25;5.13;;;;;;;9.49;76.63;101935.16;5051924;28;20026;-77
2022/03/14 04:10:33;;;;;;;6.80;4.77;;;;;;;9.48;76.79;101943.78;5045570;28;20021;-77
2022/03/14 04:12:59;;;;;;;8.48;5.07;;;;;;;9.46;76.80;101944.53;5042854;28;20305;-77
2022/03/14 04:15:27;;;;;;;9.10;5.18;;;;;;;9.46;77.84;101950.63;5045328;28;20425;-77
2022/03/14 04:17:59;;;;;;;9.60;5.47;;;;;;;9.44;77.53;101952.25;5047045;28;20303;-77
2022/03/14 04:20:25;;;;;;;7.80;5.57;;;;;;;9.44;77.75;101954.84;5045400;28;20038;-77
2022/03/14 04:22:52;;;;;;;8.25;5.70;;;;;;;9.39;78.09;101958.97;5043239;28;20032;-77
2022/03/14 04:25:17;;;;;;;9.27;5.85;;;;;;;9.37;77.99;101958.00;5044064;28;20238;-77
2022/03/14 04:27:43;;;;;;;8.63;5.72;;;;;;;9.33;78.71;101969.09;5044771;28;20029;-77
2022/03/14 04:30:09;;;;;;;10.60;5.90;;;;;;;9.33;78.69;101967.38;5044975;28;20022;-77
2022/03/14 04:32:35;;;;;;;9.77;5.93;;;;;;;9.29;78.91;101968.06;5044939;28;20256;-77
2022/03/14 04:35:01;;;;;;;9.10;5.78;;;;;;;9.28;78.77;101979.25;5045016;28;20013;-77
2022/03/14 04:37:27;;;;;;;9.45;5.72;;;;;;;9.28;78.94;101980.97;5043802;28;20009;-77
2022/03/14 04:39:52;;;;;;;8.63;5.70;;;;;;;9.28;79.12;101980.97;5043696;28;20056;-77
2022/03/14 04:42:19;;;;;;;9.43;6.07;;;;;;;9.24;79.21;101985.16;5043057;28;20022;-77
2022/03/14 04:44:45;;;;;;;10.23;6.68;;;;;;;9.24;79.18;101985.16;5045946;28;20256;-77
2022/03/14 04:47:10;;;;;;;9.60;6.00;;;;;;;9.21;79.01;102001.50;5043629;28;20053;-77
2022/03/14 04:49:35;;;;;;;11.02;6.38;;;;;;;9.18;79.29;101988.38;5047524;28;20089;-77
2022/03/14 04:52:01;;;;;;;9.32;6.40;;;;;;;9.16;79.18;101994.31;5046753;28;20036;-77
2022/03/14 04:54:26;;;;;;;11.85;6.95;;;;;;;9.14;79.21;101994.22;5048258;28;20023;-77
2022/03/14 04:56:51;;;;;;;12.38;7.20;;;;;;;9.12;79.27;102002.75;5043625;28;20022;-77
2022/03/14 04:59:17;;;;;;;10.38;6.80;;;;;;;9.09;79.33;102006.09;5043142;28;20025;-77
2022/03/14 05:01:43;;;;;;;10.75;6.68;;;;;;;9.07;79.09;102005.16;5042335;28;20314;-77
2022/03/14 05:04:08;;;;;;;11.57;7.35;;;;;;;9.05;79.41;102019.75;5046461;28;20060;-77
2022/03/14 05:06:34;;;;;;;11.25;7.22;;;;;;;9.05;79.33;102024.97;5056240;28;20025;-78
2022/03/14 05:09:01;;;;;;;12.68;7.57;;;;;;;9.03;79.58;102037.00;5045945;28;20013;-78
2022/03/14 05:11:27;;;;;;;10.00;7.18;;;;;;;9.02;79.48;102045.63;5043815;28;20044;-78
2022/03/14 05:13:52;;;;;;;10.82;7.35;;;;;;;9.02;79.32;102045.63;5041574;28;20021;-78
2022/03/14 05:16:19;;;;;;;11.40;7.68;;;;;;;9.02;79.39;102053.41;5045324;28;20079;-78
2022/03/14 05:18:44;;;;;;;11.73;7.50;;;;;;;9.02;79.38;102050.81;5041900;28;20045;-78
2022/03/14 05:21:10;;;;;;;13.02;7.93;;;;;;;9.00;79.31;102055.06;5042868;28;20104;-78
2022/03/14 05:23:35;;;;;;;11.90;8.18;;;;;;;8.95;79.92;102054.84;5043495;28;20084;-78
2022/03/14 05:26:01;;;;;;;13.40;7.97;;;;;;;8.94;79.70;102062.56;5043958;28;20220;-79
2022/03/14 05:28:26;;;;;;;12.07;8.00;;;;;;;8.93;79.93;102071.16;5041964;28;20340;-78
2022/03/14 05:30:53;;;;;;;13.35;8.10;;;;;;;8.92;80.09;102066.78;5043847;28;20040;-78
2022/03/14 05:33:18;;;;;;;13.88;8.77;;;;;;;8.92;79.95;102075.50;5040673;28;20076;-78
2022/03/14 05:35:43;;;;;;;13.60;8.93;;;;;;;8.90;80.00;102073.63;5040371;28;20279;-78
2022/03/14 05:38:09;;;;;;;14.80;9.20;;;;;;;8.91;79.80;102084.09;5033266;28;20032;-77
2022/03/14 05:40:34;;;;;;;16.52;9.30;;;;;;;8.91;79.93;102084.09;5039991;28;20028;-77
2022/03/14 05:43:05;;;;;;;17.05;9.85;;;;;;;8.92;79.50;102090.16;5040913;28;20026;-77
2022/03/14 05:45:30;;;;;;;15.65;9.85;;;;;;;8.91;79.94;102098.78;5049872;28;20096;-77
2022/03/14 05:47:56;;;;;;;14.98;9.77;;;;;;;8.90;79.55;102104.81;5047607;28;20051;-77
2022/03/14 05:50:22;;;;;;;16.58;10.32;;;;;;;8.91;79.82;102103.97;5053173;28;20168;-77
2022/03/14 05:52:48;;;;;;;18.02;10.15;;;;;;;8.91;80.13;102114.38;5046246;28;20076;-77
2022/03/14 05:55:13;;;;;;;16.27;9.85;;;;;;;8.92;80.06;102109.28;5043608;28;20048;-77
2022/03/14 05:57:39;;;;;;;18.00;10.80;;;;;;;8.90;80.12;102123.00;5038552;28;20083;-77
2022/03/14 06:00:06;;;;;;;19.48;10.90;;;;;;;8.88;79.76;102129.00;5036953;28;20087;-77
2022/03/14 06:02:34;;;;;;;21.33;11.95;;;;;;;8.87;80.12;102119.41;5032804;28;20256;-77
2022/03/14 06:05:00;;;;;;;21.52;12.35;;;;;;;8.87;80.22;102132.41;5039802;28;20018;-78
2022/03/14 06:07:25;;;;;;;17.67;11.25;;;;;;;8.87;80.56;102139.31;5046329;28;20100;-77
2022/03/14 06:09:51;;;;;;;20.98;12.02;;;;;;;8.87;80.58;102139.31;5045870;28;20029;-77
2022/03/14 06:12:27;;;;;;;22.33;12.13;;;;;;;8.86;80.63;102141.03;5031899;28;20013;-77
2022/03/14 06:14:53;;;;;;;21.15;12.90;;;;;;;8.84;80.86;102142.66;5037818;28;20029;-77
2022/03/14 06:17:19;;;;;;;18.33;11.23;;;;;;;8.86;80.59;102145.34;5040487;28;20061;-77
2022/03/14 06:19:44;;;;;;;20.60;12.45;;;;;;;8.87;80.88;102149.72;5030878;28;20018;-77
2022/03/14 06:22:10;;;;;;;22.83;12.85;;;;;;;8.88;80.66;102147.19;5034298;28;20040;-77
2022/03/14 06:24:35;;;;;;;18.73;11.90;;;;;;;8.87;80.72;102153.22;5042705;28;20256;-77
2022/03/14 06:27:01;;;;;;;21.65;12.77;;;;;;;8.86;80.79;102159.25;5043390;28;20327;-77
2022/03/14 06:29:26;;;;;;;21.27;12.65;;;;;;;8.88;80.72;102170.59;5030251;28;20056;-77
2022/03/14 06:31:51;;;;;;;22.15;12.70;;;;;;;8.91;80.17;102177.66;5039204;28;20037;-78
2022/03/14 06:34:16;;;;;;;21.92;13.18;;;;;;;8.94;80.49;102177.81;5034364;28;20044;-78
2022/03/14 06:36:44;;;;;;;22.20;12.93;;;;;;;8.95;80.39;102176.09;5042151;28;20031;-78
2022/03/14 06:39:09;;;;;;;23.63;13.30;;;;;;;8.95;80.47;102183.91;5047013;28;20029;-78
2022/03/14 06:41:39;;;;;;;23.48;12.77;;;;;;;8.96;80.23;102180.50;5050923;28;20029;-78
2022/03/14 06:44:05;;;;;;;23.40;12.75;;;;;;;8.95;80.17;102184.81;5050082;28;20017;-78
2022/03/14 06:46:30;;;;;;;24.80;13.23;;;;;;;8.95;80.11;102184.81;5050443;28;20013;-78
2022/03/14 06:48:56;;;;;;;23.52;13.50;;;;;;;8.95;80.27;102195.22;5050480;28;20188;-78
2022/03/14 06:51:21;;;;;;;22.63;13.30;;;;;;;8.97;80.26;102184.91;5047375;28;20017;-78
2022/03/14 06:53:47;;;;;;;24.08;13.43;;;;;;;8.97;80.13;102200.50;5055620;28;20216;-78
2022/03/14 06:56:15;;;;;;;21.95;13.70;;;;;;;8.98;80.08;102194.47;5057668;28;20017;-78
2022/03/14 06:58:41;;;;;;;22.20;12.98;;;;;;;8.98;80.13;102204.84;5035848;28;20112;-78
2022/03/14 07:01:06;;;;;;;24.95;14.20;;;;;;;8.96;80.43;102209.97;5059163;28;20025;-78
2022/03/14 07:03:31;;;;;;;26.55;14.38;;;;;;;8.97;80.20;102203.09;5060188;28;20029;-78
2022/03/14 07:05:57;;;;;;;25.38;14.05;;;;;;;8.98;80.36;102213.56;5038355;28;20176;-78
2022/03/14 07:08:22;;;;;;;22.73;14.30;;;;;;;8.98;80.37;102212.66;5049075;28;20239;-78
2022/03/14 07:10:47;;;;;;;49.38;26.75;;;;;;;8.98;80.35;102212.66;5044992;28;20029;-77
2022/03/14 07:13:13;;;;;;;94.63;36.17;;;;;;;9.00;80.09;102219.72;5052713;28;20152;-77
2022/03/14 07:15:38;;;;;;;34.22;17.25;;;;;;;9.01;80.38;102226.72;5057772;28;20048;-78
2022/03/14 07:18:03;;;;;;;26.67;14.70;;;;;;;9.01;80.28;102226.72;5059342;28;20048;-78
2022/03/14 07:20:29;;;;;;;25.55;14.93;;;;;;;9.03;80.11;102224.19;5046441;28;20063;-80
2022/03/14 07:23:01;;;;;;;29.02;18.17;;;;;;;9.05;80.08;102225.16;5051795;28;20048;-78
2022/03/14 07:25:29;;;;;;;28.50;16.52;;;;;;;9.06;80.06;102226.97;5047429;28;20319;-78
2022/03/14 07:27:56;;;;;;;24.25;15.80;;;;;;;9.09;79.90;102232.31;5042100;28;20025;-78
2022/03/14 07:30:22;;;;;;;23.63;14.35;;;;;;;9.11;79.91;102230.69;5045401;28;20044;-78
2022/03/14 07:32:48;;;;;;;33.17;18.58;;;;;;;9.11;79.59;102235.91;5039823;28;20047;-78
2022/03/14 07:35:14;;;;;;;65.78;33.35;;;;;;;9.13;79.63;102234.25;5025395;28;20191;-78
2022/03/14 07:37:40;;;;;;;25.60;15.02;;;;;;;9.16;79.39;102233.53;5043103;28;20018;-79
2022/03/14 07:40:08;;;;;;;25.67;14.13;;;;;;;9.15;79.16;102235.25;5051803;28;20083;-79
2022/03/14 07:42:40;;;;;;;24.50;14.10;;;;;;;9.16;79.23;102230.94;5051076;28;20017;-79
2022/03/14 07:45:06;;;;;;;28.20;15.43;;;;;;;9.19;79.35;102238.88;5033960;28;20020;-79
2022/03/14 07:47:31;;;;;;;25.42;15.27;;;;;;;9.20;79.32;102243.28;5038606;28;20029;-79
2022/03/14 07:49:56;;;;;;;25.13;14.45;;;;;;;9.21;79.02;102251.16;5033626;28;20064;-79
2022/03/14 07:52:22;;;;;;;27.02;14.65;;;;;;;9.22;79.55;102247.75;5050655;28;20037;-79
2022/03/14 07:54:48;;;;;;;27.42;14.18;;;;;;;9.25;79.10;102254.81;5047414;28;20061;-79
2022/03/14 07:57:13;;;;;;;26.92;15.05;;;;;;;9.30;78.56;102260.25;5060779;28;20017;-79
2022/03/14 07:59:39;;;;;;;28.73;15.32;;;;;;;9.32;78.93;102261.22;5050620;28;20203;-79
2022/03/14 08:02:05;;;;;;;27.00;14.93;;;;;;;9.33;78.93;102263.03;5046751;28;20020;-79
2022/03/14 08:04:31;;;;;;;29.38;14.85;;;;;;;9.34;78.58;102270.91;5046422;28;20017;-79
2022/03/14 08:06:56;;;;;;;25.88;15.43;;;;;;;9.37;78.80;102275.34;5057227;28;20204;-79
2022/03/14 08:09:22;;;;;;;30.35;15.88;;;;;;;9.38;78.56;102269.34;5044053;28;20028;-79
2022/03/14 08:11:47;;;;;;;33.00;16.60;;;;;;;9.39;78.48;102276.34;5054104;28;20110;-79
2022/03/14 08:14:12;;;;;;;29.38;15.85;;;;;;;9.41;78.34;102279.91;5044260;28;20033;-79
2022/03/14 08:16:38;;;;;;;29.60;15.25;;;;;;;9.40;78.39;102283.34;5047893;28;20030;-79
2022/03/14 08:19:03;;;;;;;29.27;15.40;;;;;;;9.40;78.39;102288.53;5045155;28;20110;-80
2022/03/14 08:21:28;;;;;;;30.38;16.00;;;;;;;9.41;77.84;102295.50;5046256;28;20025;-80
2022/03/14 08:23:53;;;;;;;34.83;16.85;;;;;;;9.40;78.54;102298.94;5045021;28;20260;-80
2022/03/14 08:26:19;;;;;;;32.10;15.70;;;;;;;9.42;78.29;102307.72;5054426;28;20021;-80
2022/03/14 08:28:44;;;;;;;31.08;15.80;;;;;;;9.42;78.42;102309.44;5039057;28;20026;-80
2022/03/14 08:31:10;;;;;;;28.45;15.57;;;;;;;9.42;78.59;102317.22;5047312;28;20021;-80
2022/03/14 08:33:40;;;;;;;43.40;23.48;;;;;;;9.43;78.32;102309.50;5045027;28;20049;-80
2022/03/14 08:36:06;;;;;;;32.08;15.55;;;;;;;9.43;78.03;102313.78;5045193;28;20021;-80
2022/03/14 08:38:31;;;;;;;30.55;16.65;;;;;;;9.41;78.39;102318.91;5054201;28;20062;-79
2022/03/14 08:40:57;;;;;;;27.90;16.13;;;;;;;9.43;78.73;102324.19;5046700;28;20057;-79
2022/03/14 08:43:22;;;;;;;23.15;15.23;;;;;;;9.45;78.08;102330.41;5047038;28;20314;-79
2022/03/14 08:45:47;;;;;;;30.33;15.75;;;;;;;9.48;78.29;102333.16;5049260;28;20022;-79
2022/03/14 08:48:13;;;;;;;29.23;15.63;;;;;;;9.50;78.05;102332.44;5059611;28;20041;-80
2022/03/14 08:50:40;;;;;;;27.65;14.88;;;;;;;9.53;78.20;102335.19;5049078;28;20111;-79
2022/03/14 08:53:05;;;;;;;28.90;15.05;;;;;;;9.56;78.46;102348.34;5049610;28;20040;-80
2022/03/14 08:55:30;;;;;;;25.30;14.63;;;;;;;9.60;78.52;102353.72;5044412;28;20031;-79
2022/03/14 08:57:56;;;;;;;25.50;13.85;;;;;;;9.61;77.96;102353.78;5050442;28;20025;-79
2022/03/14 09:00:24;;;;;;;28.80;14.23;;;;;;;9.62;78.03;102352.97;5056153;28;20132;-80
2022/03/14 09:02:49;;;;;;;24.65;13.82;;;;;;;9.66;77.69;102356.63;5049921;28;20084;-80
2022/03/14 09:05:14;;;;;;;27.25;13.45;;;;;;;9.68;77.95;102368.91;5049140;28;20032;-80
2022/03/14 09:07:40;;;;;;;27.10;13.88;;;;;;;9.72;77.31;102375.19;5034434;28;20037;-80
2022/03/14 09:10:08;;;;;;;25.40;13.55;;;;;;;9.75;77.67;102377.94;5049865;28;20187;-80
2022/03/14 09:12:34;;;;;;;25.35;14.25;;;;;;;9.77;77.51;102380.63;5047166;28;20013;-79
2022/03/14 09:15:01;;;;;;;26.60;14.07;;;;;;;9.79;77.36;102382.50;5052877;28;20092;-79
2022/03/14 09:17:28;;;;;;;25.95;14.43;;;;;;;9.80;77.74;102388.59;5042590;28;20089;-78
2022/03/14 09:19:54;;;;;;;23.98;13.75;;;;;;;9.82;76.59;102386.94;5047175;28;20029;-78
2022/03/14 09:22:19;;;;;;;24.92;14.65;;;;;;;9.82;76.78;102387.84;5042673;28;20020;-78
2022/03/14 09:24:47;;;;;;;23.33;13.50;;;;;;;9.83;76.95;102387.00;5048858;28;20021;-78
2022/03/14 09:27:12;;;;;;;24.10;12.85;;;;;;;9.89;76.58;102391.66;5052406;28;20067;-78
2022/03/14 09:29:38;;;;;;;24.67;12.63;;;;;;;9.95;76.22;102398.88;5057118;28;20190;-78
2022/03/14 09:32:04;;;;;;;26.90;13.13;;;;;;;10.00;76.57;102397.41;5049921;28;20052;-78
2022/03/14 09:34:29;;;;;;;26.02;13.35;;;;;;;10.04;76.19;102400.25;5052001;28;20210;-78
2022/03/14 09:36:55;;;;;;;22.65;12.55;;;;;;;10.12;75.92;102407.56;5055537;28;20015;-78
2022/03/14 09:39:20;;;;;;;22.30;12.48;;;;;;;10.20;75.75;102412.34;5051597;28;20030;-78
2022/03/14 09:41:49;;;;;;;20.92;12.30;;;;;;;10.27;75.48;102421.38;5042009;28;20032;-78
2022/03/14 09:44:19;;;;;;;23.98;12.80;;;;;;;10.32;75.10;102421.59;5050540;28;20025;-78
2022/03/14 09:46:47;;;;;;;26.92;13.30;;;;;;;10.34;75.06;102422.59;5043181;28;20048;-80
2022/03/14 09:49:14;;;;;;;26.15;12.10;;;;;;;10.36;74.83;102428.78;5043680;28;20066;-80
2022/03/14 09:51:41;;;;;;;21.15;11.63;;;;;;;10.38;74.98;102430.63;5051138;28;20017;-79
2022/03/14 09:54:07;;;;;;;22.15;11.40;;;;;;;10.42;74.11;102439.50;5053620;28;20063;-80
2022/03/14 09:56:33;;;;;;;25.73;12.82;;;;;;;10.44;74.19;102446.59;5048591;28;20024;-80
2022/03/14 09:59:00;;;;;;;19.38;11.70;;;;;;;10.49;73.99;102461.56;5038326;28;20120;-80
2022/03/14 10:01:27;;;;;;;20.52;11.40;;;;;;;10.48;73.40;102455.44;5034043;28;20021;-79
2022/03/14 10:03:54;;;;;;;21.23;11.73;;;;;;;10.47;73.40;102453.69;5043807;28;20025;-80
2022/03/14 10:06:20;;;;;;;23.42;11.63;;;;;;;10.47;73.02;102461.50;5042520;28;20021;-79
2022/03/14 10:08:45;;;;;;;23.45;13.23;;;;;;;10.46;73.09;102462.31;5044984;28;20013;-80
2022/03/14 10:11:11;;;;;;;26.00;13.82;;;;;;;10.44;73.05;102467.44;5043558;28;20024;-80
2022/03/14 10:13:37;;;;;;;21.95;12.02;;;;;;;10.44;72.90;102463.91;5042124;28;20210;-79
2022/03/14 10:16:04;;;;;;;26.60;13.68;;;;;;;10.45;73.04;102478.75;5047349;28;20079;-80
2022/03/14 10:18:35;;;;;;;21.58;11.45;;;;;;;10.47;72.56;102474.53;5058146;28;20041;-79
2022/03/14 10:21:05;;;;;;;20.63;11.27;;;;;;;10.56;73.60;102464.53;5044157;28;20063;-80
2022/03/14 10:23:43;;;;;;;15.32;9.80;;;;;;;10.63;72.20;102472.66;5046331;28;20029;-80
2022/03/14 10:26:16;;;;;;;42.53;19.67;;;;;;;10.68;71.81;102471.19;5041532;28;20025;-79
2022/03/14 10:28:48;;;;;;;27.00;13.32;;;;;;;10.72;71.87;102478.34;5038984;28;20048;-80
2022/03/14 10:31:14;;;;;;;17.90;9.27;;;;;;;10.76;70.92;102489.00;5041671;28;20010;-80
2022/03/14 10:33:39;;;;;;;31.65;15.38;;;;;;;10.81;71.28;102491.81;5044419;28;20033;-79
2022/03/14 10:36:06;;;;;;;19.73;10.43;;;;;;;10.90;71.57;102491.38;5045775;28;20301;-79
2022/03/14 10:38:41;;;;;;;18.95;10.68;;;;;;;10.97;70.40;102503.91;5052130;28;20155;-80
2022/03/14 10:41:14;;;;;;;24.52;13.60;;;;;;;11.05;71.14;102501.66;5043357;28;20025;-79
2022/03/14 10:43:42;;;;;;;21.70;11.43;;;;;;;11.15;70.20;102503.88;5045549;28;20024;-79
2022/03/14 10:46:08;;;;;;;22.80;12.85;;;;;;;11.26;70.41;102513.13;5043942;28;20018;-79
2022/03/14 10:48:38;;;;;;;23.55;13.77;;;;;;;11.28;69.04;102508.88;5033131;28;20089;-79
2022/03/14 10:51:13;;;;;;;25.33;13.00;;;;;;;11.29;69.31;102513.25;5049970;28;20271;-80
2022/03/14 10:53:46;;;;;;;24.70;13.77;;;;;;;11.29;69.07;102517.59;5047489;28;20028;-80
2022/03/14 10:56:13;;;;;;;25.05;13.35;;;;;;;11.28;68.82;102518.41;5043656;28;20025;-80
2022/03/14 10:58:39;;;;;;;20.92;12.80;;;;;;;11.28;68.93;102515.81;5046656;28;20025;-79
2022/03/14 11:01:09;;;;;;;25.45;12.55;;;;;;;11.35;70.01;102520.50;5046851;28;20039;-79
2022/03/14 11:03:39;;;;;;;21.83;11.40;;;;;;;11.46;69.27;102513.19;5043609;28;20076;-79
2022/03/14 11:06:10;;;;;;;22.45;12.85;;;;;;;11.58;69.03;102534.63;5040115;28;20060;-79
2022/03/14 11:08:42;;;;;;;18.75;10.40;;;;;;;11.65;67.98;102518.41;5046809;28;20087;-79
2022/03/14 11:11:26;;;;;;;17.25;10.60;;;;;;;11.80;69.38;102527.78;5044435;28;20167;-79
2022/03/14 11:13:55;;;;;;;16.73;9.90;;;;;;;11.93;67.97;102527.53;5040656;28;20037;-79
2022/03/14 11:16:20;;;;;;;14.00;9.27;;;;;;;12.05;67.34;102535.06;5042174;28;20013;-79
2022/03/14 11:18:47;;;;;;;18.95;11.45;;;;;;;12.14;66.44;102525.00;5051768;28;20033;-79